sensor_id;sensor_type;location;lat;lon;timestamp;pressure;altitude;pressure_sealevel;temperature;humidity
47280;BME280;34064;44.942;0.008;2023-04-12T00:00:19;98472.88;;;14.71;50.05
47280;BME280;34064;44.942;0.008;2023-04-12T00:02:45;98468.69;;;14.68;49.79
47280;BME280;34064;44.942;0.008;2023-04-12T00:05:12;98469.25;;;14.62;49.95
47280;BME280;34064;44.942;0.008;2023-04-12T00:07:38;98476.59;;;14.60;49.92
47280;BME280;34064;44.942;0.008;2023-04-12T00:10:06;98464.22;;;14.59;50.35
47280;BME280;34064;44.942;0.008;2023-04-12T00:12:34;98461.69;;;14.57;50.13
47280;BME280;34064;44.942;0.008;2023-04-12T00:15:01;98462.00;;;14.54;50.34
47280;BME280;34064;44.942;0.008;2023-04-12T00:17:27;98453.28;;;14.52;50.08
47280;BME280;34064;44.942;0.008;2023-04-12T00:19:54;98444.56;;;14.50;50.16
47280;BME280;34064;44.942;0.008;2023-04-12T00:22:20;98443.75;;;14.49;50.28
47280;BME280;34064;44.942;0.008;2023-04-12T00:24:47;98433.06;;;14.49;49.98
47280;BME280;34064;44.942;0.008;2023-04-12T00:27:13;98426.19;;;14.47;50.21
47280;BME280;34064;44.942;0.008;2023-04-12T00:29:40;98424.09;;;14.41;50.46
47280;BME280;34064;44.942;0.008;2023-04-12T00:32:06;98422.03;;;14.34;50.37
47280;BME280;34064;44.942;0.008;2023-04-12T00:34:32;98428.91;;;14.19;50.94
47280;BME280;34064;44.942;0.008;2023-04-12T00:37:00;98439.50;;;14.11;50.68
47280;BME280;34064;44.942;0.008;2023-04-12T00:39:27;98444.03;;;14.00;50.95
47280;BME280;34064;44.942;0.008;2023-04-12T00:41:54;98446.31;;;13.95;50.79
47280;BME280;34064;44.942;0.008;2023-04-12T00:44:22;98450.28;;;13.91;51.10
47280;BME280;34064;44.942;0.008;2023-04-12T00:46:49;98444.38;;;13.87;51.09
47280;BME280;34064;44.942;0.008;2023-04-12T00:49:16;98450.44;;;13.80;51.31
47280;BME280;34064;44.942;0.008;2023-04-12T00:51:42;98455.69;;;13.71;51.66
47280;BME280;34064;44.942;0.008;2023-04-12T00:54:09;98457.66;;;13.69;51.26
47280;BME280;34064;44.942;0.008;2023-04-12T00:56:36;98449.25;;;13.64;51.69
47280;BME280;34064;44.942;0.008;2023-04-12T00:59:07;98438.00;;;13.61;51.35
47280;BME280;34064;44.942;0.008;2023-04-12T01:01:41;98433.81;;;13.58;51.27
47280;BME280;34064;44.942;0.008;2023-04-12T01:04:12;98433.25;;;13.54;52.05
47280;BME280;34064;44.942;0.008;2023-04-12T01:07:50;98438.44;;;13.56;51.68
47280;BME280;34064;44.942;0.008;2023-04-12T01:10:26;98438.06;;;13.51;51.81
47280;BME280;34064;44.942;0.008;2023-04-12T01:15:57;98424.59;;;13.43;52.28
47280;BME280;34064;44.942;0.008;2023-04-12T01:18:29;98422.34;;;13.38;52.03
47280;BME280;34064;44.942;0.008;2023-04-12T01:21:07;98419.25;;;13.33;52.15
47280;BME280;34064;44.942;0.008;2023-04-12T01:26:46;98421.25;;;13.21;52.33
47280;BME280;34064;44.942;0.008;2023-04-12T01:29:19;98415.50;;;13.16;52.30
47280;BME280;34064;44.942;0.008;2023-04-12T01:31:57;98415.63;;;13.14;52.48
47280;BME280;34064;44.942;0.008;2023-04-12T01:34:27;98398.53;;;13.17;52.92
47280;BME280;34064;44.942;0.008;2023-04-12T01:36:55;98387.56;;;13.20;52.53
47280;BME280;34064;44.942;0.008;2023-04-12T01:39:22;98400.47;;;13.24;52.16
47280;BME280;34064;44.942;0.008;2023-04-12T01:41:49;98390.94;;;13.22;52.90
47280;BME280;34064;44.942;0.008;2023-04-12T01:44:16;98388.31;;;13.12;52.65
47280;BME280;34064;44.942;0.008;2023-04-12T01:46:44;98377.75;;;13.10;52.43
47280;BME280;34064;44.942;0.008;2023-04-12T01:49:13;98399.53;;;13.06;52.70
47280;BME280;34064;44.942;0.008;2023-04-12T01:52:00;98396.31;;;13.02;52.76
47280;BME280;34064;44.942;0.008;2023-04-12T01:54:36;98364.59;;;12.99;52.77
47280;BME280;34064;44.942;0.008;2023-04-12T01:57:06;98364.59;;;12.99;53.20
47280;BME280;34064;44.942;0.008;2023-04-12T01:59:40;98359.69;;;13.04;52.88
47280;BME280;34064;44.942;0.008;2023-04-12T02:02:11;98349.72;;;13.06;52.93
47280;BME280;34064;44.942;0.008;2023-04-12T02:04:43;98364.03;;;13.05;52.92
47280;BME280;34064;44.942;0.008;2023-04-12T02:07:15;98370.78;;;13.00;53.48
47280;BME280;34064;44.942;0.008;2023-04-12T02:09:45;98364.03;;;12.95;52.92
47280;BME280;34064;44.942;0.008;2023-04-12T02:12:13;98361.78;;;12.91;53.02
47280;BME280;34064;44.942;0.008;2023-04-12T02:14:41;98362.94;;;12.88;53.70
47280;BME280;34064;44.942;0.008;2023-04-12T02:17:10;98349.03;;;12.94;53.34
47280;BME280;34064;44.942;0.008;2023-04-12T02:19:42;98338.78;;;13.00;53.32
47280;BME280;34064;44.942;0.008;2023-04-12T02:22:10;98323.88;;;13.07;53.18
47280;BME280;34064;44.942;0.008;2023-04-12T02:24:36;98315.72;;;13.08;53.68
47280;BME280;34064;44.942;0.008;2023-04-12T02:27:04;98300.84;;;13.16;53.61
47280;BME280;34064;44.942;0.008;2023-04-12T02:29:31;98282.03;;;13.17;53.54
47280;BME280;34064;44.942;0.008;2023-04-12T02:31:58;98286.22;;;13.20;54.09
47280;BME280;34064;44.942;0.008;2023-04-12T02:34:24;98278.75;;;13.23;54.27
47280;BME280;34064;44.942;0.008;2023-04-12T02:36:51;98290.97;;;13.26;54.23
47280;BME280;34064;44.942;0.008;2023-04-12T02:39:17;98275.25;;;13.23;54.29
47280;BME280;34064;44.942;0.008;2023-04-12T02:41:46;98276.78;;;13.25;54.26
47280;BME280;34064;44.942;0.008;2023-04-12T02:44:18;98277.31;;;13.29;54.77
47280;BME280;34064;44.942;0.008;2023-04-12T02:46:48;98270.72;;;13.33;54.23
47280;BME280;34064;44.942;0.008;2023-04-12T02:49:17;98279.09;;;13.38;54.32
47280;BME280;34064;44.942;0.008;2023-04-12T02:51:47;98271.84;;;13.40;54.12
47280;BME280;34064;44.942;0.008;2023-04-12T02:54:17;98259.19;;;13.43;54.21
47280;BME280;34064;44.942;0.008;2023-04-12T02:56:46;98242.91;;;13.46;54.36
47280;BME280;34064;44.942;0.008;2023-04-12T02:59:16;98247.09;;;13.48;54.28
47280;BME280;34064;44.942;0.008;2023-04-12T03:01:44;98240.59;;;13.51;54.35
47280;BME280;34064;44.942;0.008;2023-04-12T03:04:13;98247.63;;;13.52;54.37
47280;BME280;34064;44.942;0.008;2023-04-12T03:06:44;98233.81;;;13.56;54.45
47280;BME280;34064;44.942;0.008;2023-04-12T03:09:20;98234.66;;;13.57;54.57
47280;BME280;34064;44.942;0.008;2023-04-12T03:11:51;98222.69;;;13.61;54.49
47280;BME280;34064;44.942;0.008;2023-04-12T03:14:21;98213.72;;;13.62;54.50
47280;BME280;34064;44.942;0.008;2023-04-12T03:16:48;98213.38;;;13.65;54.15
47280;BME280;34064;44.942;0.008;2023-04-12T03:19:18;98212.56;;;13.65;54.54
47280;BME280;34064;44.942;0.008;2023-04-12T03:21:48;98212.41;;;13.66;54.54
47280;BME280;34064;44.942;0.008;2023-04-12T03:24:18;98208.03;;;13.65;54.50
47280;BME280;34064;44.942;0.008;2023-04-12T03:26:48;98206.22;;;13.66;54.90
47280;BME280;34064;44.942;0.008;2023-04-12T03:29:17;98209.44;;;13.69;54.86
47280;BME280;34064;44.942;0.008;2023-04-12T03:31:45;98200.44;;;13.70;54.79
47280;BME280;34064;44.942;0.008;2023-04-12T03:34:14;98193.13;;;13.72;55.18
47280;BME280;34064;44.942;0.008;2023-04-12T03:36:42;98192.13;;;13.73;55.58
47280;BME280;34064;44.942;0.008;2023-04-12T03:39:08;98181.91;;;13.69;56.19
47280;BME280;34064;44.942;0.008;2023-04-12T03:41:35;98173.13;;;13.77;55.82
47280;BME280;34064;44.942;0.008;2023-04-12T03:44:03;98171.31;;;13.77;55.72
47280;BME280;34064;44.942;0.008;2023-04-12T03:46:32;98162.84;;;13.82;55.97
47280;BME280;34064;44.942;0.008;2023-04-12T03:49:00;98164.66;;;13.81;55.81
47280;BME280;34064;44.942;0.008;2023-04-12T03:51:28;98166.50;;;13.81;56.49
47280;BME280;34064;44.942;0.008;2023-04-12T03:53:56;98176.84;;;13.84;55.87
47280;BME280;34064;44.942;0.008;2023-04-12T03:56:24;98173.19;;;13.85;55.82
47280;BME280;34064;44.942;0.008;2023-04-12T03:58:52;98163.06;;;13.88;55.86
47280;BME280;34064;44.942;0.008;2023-04-12T04:01:21;98160.94;;;13.92;56.05
47280;BME280;34064;44.942;0.008;2023-04-12T04:03:49;98158.91;;;13.94;55.87
47280;BME280;34064;44.942;0.008;2023-04-12T04:06:16;98152.44;;;13.97;56.02
47280;BME280;34064;44.942;0.008;2023-04-12T04:08:44;98146.94;;;13.98;56.64
47280;BME280;34064;44.942;0.008;2023-04-12T04:11:13;98143.97;;;14.01;56.47
47280;BME280;34064;44.942;0.008;2023-04-12T04:13:43;98138.16;;;14.06;55.90
47280;BME280;34064;44.942;0.008;2023-04-12T04:16:13;98135.31;;;14.08;56.12
47280;BME280;34064;44.942;0.008;2023-04-12T04:18:41;98139.50;;;14.10;56.10
47280;BME280;34064;44.942;0.008;2023-04-12T04:21:07;98137.00;;;14.09;56.70
47280;BME280;34064;44.942;0.008;2023-04-12T04:23:34;98135.31;;;14.08;56.51
47280;BME280;34064;44.942;0.008;2023-04-12T04:26:12;98131.38;;;14.12;56.24
47280;BME280;34064;44.942;0.008;2023-04-12T04:28:42;98147.06;;;14.15;56.30
47280;BME280;34064;44.942;0.008;2023-04-12T04:31:11;98143.09;;;14.19;55.92
47280;BME280;34064;44.942;0.008;2023-04-12T04:33:38;98144.59;;;14.22;56.18
47280;BME280;34064;44.942;0.008;2023-04-12T04:36:05;98145.44;;;14.22;56.49
47280;BME280;34064;44.942;0.008;2023-04-12T04:38:35;98141.75;;;14.23;56.59
47280;BME280;34064;44.942;0.008;2023-04-12T04:41:02;98141.94;;;14.22;56.81
47280;BME280;34064;44.942;0.008;2023-04-12T04:43:29;98149.63;;;14.25;56.52
47280;BME280;34064;44.942;0.008;2023-04-12T04:45:57;98144.13;;;14.26;56.67
47280;BME280;34064;44.942;0.008;2023-04-12T04:48:24;98136.81;;;14.28;56.80
47280;BME280;34064;44.942;0.008;2023-04-12T04:50:52;98129.47;;;14.30;56.72
47280;BME280;34064;44.942;0.008;2023-04-12T04:53:23;98122.81;;;14.34;56.57
47280;BME280;34064;44.942;0.008;2023-04-12T04:55:58;98121.66;;;14.37;56.69
47280;BME280;34064;44.942;0.008;2023-04-12T04:58:28;98120.81;;;14.37;56.74
47280;BME280;34064;44.942;0.008;2023-04-12T05:00:58;98120.50;;;14.40;57.22
47280;BME280;34064;44.942;0.008;2023-04-12T05:03:26;98114.16;;;14.41;56.84
47280;BME280;34064;44.942;0.008;2023-04-12T05:05:55;98108.81;;;14.41;56.88
47280;BME280;34064;44.942;0.008;2023-04-12T05:08:25;98115.50;;;14.45;56.68
47280;BME280;34064;44.942;0.008;2023-04-12T05:10:56;98112.84;;;14.45;57.27
47280;BME280;34064;44.942;0.008;2023-04-12T05:13:25;98125.22;;;14.46;56.97
47280;BME280;34064;44.942;0.008;2023-04-12T05:15:55;98114.88;;;14.51;56.91
47280;BME280;34064;44.942;0.008;2023-04-12T05:18:24;98113.72;;;14.54;57.02
47280;BME280;34064;44.942;0.008;2023-04-12T05:20:52;98108.22;;;14.55;56.88
47280;BME280;34064;44.942;0.008;2023-04-12T05:23:20;98099.22;;;14.56;57.01
47280;BME280;34064;44.942;0.008;2023-04-12T05:25:48;98096.22;;;14.59;56.80
47280;BME280;34064;44.942;0.008;2023-04-12T05:28:17;98101.22;;;14.62;56.78
47280;BME280;34064;44.942;0.008;2023-04-12T05:30:50;98087.03;;;14.62;57.10
47280;BME280;34064;44.942;0.008;2023-04-12T05:33:17;98093.06;;;14.64;56.87
47280;BME280;34064;44.942;0.008;2023-04-12T05:35:44;98089.25;;;14.66;56.66
47280;BME280;34064;44.942;0.008;2023-04-12T05:38:12;98091.75;;;14.68;57.00
47280;BME280;34064;44.942;0.008;2023-04-12T05:40:40;98094.94;;;14.72;56.99
47280;BME280;34064;44.942;0.008;2023-04-12T05:43:11;98101.16;;;14.72;57.01
47280;BME280;34064;44.942;0.008;2023-04-12T05:45:41;98097.47;;;14.73;56.97
47280;BME280;34064;44.942;0.008;2023-04-12T05:48:08;98099.31;;;14.73;57.34
47280;BME280;34064;44.942;0.008;2023-04-12T05:50:37;98094.31;;;14.78;57.21
47280;BME280;34064;44.942;0.008;2023-04-12T05:53:07;98087.47;;;14.84;57.25
47280;BME280;34064;44.942;0.008;2023-04-12T05:55:38;98091.81;;;14.85;57.39
47280;BME280;34064;44.942;0.008;2023-04-12T05:58:13;98080.97;;;14.86;57.57
47280;BME280;34064;44.942;0.008;2023-04-12T06:00:44;98088.66;;;14.89;57.61
47280;BME280;34064;44.942;0.008;2023-04-12T06:03:20;98089.81;;;14.87;57.74
47280;BME280;34064;44.942;0.008;2023-04-12T06:05:54;98081.13;;;14.93;57.52
47280;BME280;34064;44.942;0.008;2023-04-12T06:08:25;98082.00;;;14.93;57.51
47280;BME280;34064;44.942;0.008;2023-04-12T06:10:57;98083.50;;;14.96;57.48
47280;BME280;34064;44.942;0.008;2023-04-12T06:13:26;98083.50;;;14.96;57.53
47280;BME280;34064;44.942;0.008;2023-04-12T06:15:57;98087.84;;;14.97;57.45
47280;BME280;34064;44.942;0.008;2023-04-12T06:18:32;98081.69;;;14.96;57.68
47280;BME280;34064;44.942;0.008;2023-04-12T06:21:12;98083.00;;;15.01;57.54
47280;BME280;34064;44.942;0.008;2023-04-12T06:24:05;98068.63;;;15.02;57.60
47280;BME280;34064;44.942;0.008;2023-04-12T06:26:48;98062.13;;;15.04;57.44
47280;BME280;34064;44.942;0.008;2023-04-12T06:29:25;98061.13;;;15.05;57.19
47280;BME280;34064;44.942;0.008;2023-04-12T06:31:57;98065.97;;;15.10;57.15
47280;BME280;34064;44.942;0.008;2023-04-12T06:34:38;98061.97;;;15.14;57.12
47280;BME280;34064;44.942;0.008;2023-04-12T06:37:08;98065.31;;;15.16;57.10
47280;BME280;34064;44.942;0.008;2023-04-12T06:39:39;98063.66;;;15.15;56.99
47280;BME280;34064;44.942;0.008;2023-04-12T06:42:11;98042.75;;;15.19;56.95
47280;BME280;34064;44.942;0.008;2023-04-12T06:44:39;98055.13;;;15.20;56.83
47280;BME280;34064;44.942;0.008;2023-04-12T06:47:09;98044.09;;;15.23;56.98
47280;BME280;34064;44.942;0.008;2023-04-12T06:49:40;98054.16;;;15.29;56.62
47280;BME280;34064;44.942;0.008;2023-04-12T06:52:13;98045.25;;;15.28;56.59
47280;BME280;34064;44.942;0.008;2023-04-12T06:54:43;98036.41;;;15.28;56.76
47280;BME280;34064;44.942;0.008;2023-04-12T06:57:13;98046.44;;;15.34;56.43
47280;BME280;34064;44.942;0.008;2023-04-12T06:59:50;98048.94;;;15.36;56.42
47280;BME280;34064;44.942;0.008;2023-04-12T07:02:23;98043.59;;;15.36;56.33
47280;BME280;34064;44.942;0.008;2023-04-12T07:05:01;98045.94;;;15.39;56.13
47280;BME280;34064;44.942;0.008;2023-04-12T07:07:31;98041.25;;;15.41;56.23
47280;BME280;34064;44.942;0.008;2023-04-12T07:10:07;98038.25;;;15.44;56.30
47280;BME280;34064;44.942;0.008;2023-04-12T07:12:39;98032.56;;;15.47;56.08
47280;BME280;34064;44.942;0.008;2023-04-12T07:15:10;98032.91;;;15.52;56.01
47280;BME280;34064;44.942;0.008;2023-04-12T07:17:37;98037.91;;;15.55;55.87
47280;BME280;34064;44.942;0.008;2023-04-12T07:20:04;98033.03;;;15.59;55.63
47280;BME280;34064;44.942;0.008;2023-04-12T07:22:31;98034.91;;;15.58;55.72
47280;BME280;34064;44.942;0.008;2023-04-12T07:24:58;98034.72;;;15.60;55.74
47280;BME280;34064;44.942;0.008;2023-04-12T07:27:24;98031.91;;;15.62;55.88
47280;BME280;34064;44.942;0.008;2023-04-12T07:29:51;98031.91;;;15.62;56.03
47280;BME280;34064;44.942;0.008;2023-04-12T07:32:18;98029.84;;;15.64;55.99
47280;BME280;34064;44.942;0.008;2023-04-12T07:34:45;98031.41;;;15.58;56.40
47280;BME280;34064;44.942;0.008;2023-04-12T07:37:11;98027.03;;;15.65;56.29
47280;BME280;34064;44.942;0.008;2023-04-12T07:39:38;98033.56;;;15.63;56.62
47280;BME280;34064;44.942;0.008;2023-04-12T07:42:05;98037.56;;;15.58;56.96
47280;BME280;34064;44.942;0.008;2023-04-12T07:44:32;98044.59;;;15.59;57.33
47280;BME280;34064;44.942;0.008;2023-04-12T07:46:59;98042.94;;;15.58;57.64
47280;BME280;34064;44.942;0.008;2023-04-12T07:49:25;98048.97;;;15.52;58.00
47280;BME280;34064;44.942;0.008;2023-04-12T07:51:54;98048.09;;;15.52;58.23
47280;BME280;34064;44.942;0.008;2023-04-12T07:54:25;98047.28;;;15.51;58.50
47280;BME280;34064;44.942;0.008;2023-04-12T07:57:01;98045.28;;;15.53;58.92
47280;BME280;34064;44.942;0.008;2023-04-12T07:59:29;98050.97;;;15.50;58.78
47280;BME280;34064;44.942;0.008;2023-04-12T08:01:58;98049.28;;;15.49;59.12
47280;BME280;34064;44.942;0.008;2023-04-12T08:04:32;98054.63;;;15.49;59.36
47280;BME280;34064;44.942;0.008;2023-04-12T08:07:02;98055.47;;;15.50;59.38
47280;BME280;34064;44.942;0.008;2023-04-12T08:09:30;98057.50;;;15.48;59.59
47280;BME280;34064;44.942;0.008;2023-04-12T08:11:56;98065.66;;;15.46;59.83
47280;BME280;34064;44.942;0.008;2023-04-12T08:14:23;98069.03;;;15.48;60.16
47280;BME280;34064;44.942;0.008;2023-04-12T08:16:51;98065.66;;;15.46;60.17
47280;BME280;34064;44.942;0.008;2023-04-12T08:19:20;98060.81;;;15.50;60.31
47280;BME280;34064;44.942;0.008;2023-04-12T08:21:47;98053.47;;;15.52;60.44
47280;BME280;34064;44.942;0.008;2023-04-12T08:24:14;98063.50;;;15.50;60.64
47280;BME280;34064;44.942;0.008;2023-04-12T08:26:40;98066.03;;;15.51;60.96
47280;BME280;34064;44.942;0.008;2023-04-12T08:29:06;98073.06;;;15.52;61.19
47280;BME280;34064;44.942;0.008;2023-04-12T08:31:33;98064.53;;;15.57;61.38
47280;BME280;34064;44.942;0.008;2023-04-12T08:34:00;98056.97;;;15.60;61.38
47280;BME280;34064;44.942;0.008;2023-04-12T08:36:26;98028.38;;;15.61;62.02
47280;BME280;34064;44.942;0.008;2023-04-12T08:38:56;98015.97;;;15.68;62.07
47280;BME280;34064;44.942;0.008;2023-04-12T08:41:26;98029.19;;;15.70;62.16
47280;BME280;34064;44.942;0.008;2023-04-12T08:43:57;98048.63;;;15.72;62.95
47280;BME280;34064;44.942;0.008;2023-04-12T08:46:28;98036.88;;;15.81;62.71
47280;BME280;34064;44.942;0.008;2023-04-12T08:48:55;98056.63;;;15.80;63.28
47280;BME280;34064;44.942;0.008;2023-04-12T08:51:25;98066.03;;;15.84;63.57
47280;BME280;34064;44.942;0.008;2023-04-12T08:53:53;98071.22;;;15.86;63.45
47280;BME280;34064;44.942;0.008;2023-04-12T08:56:25;98055.28;;;15.93;63.73
47280;BME280;34064;44.942;0.008;2023-04-12T08:58:58;98051.63;;;15.94;63.50
47280;BME280;34064;44.942;0.008;2023-04-12T09:01:40;98059.31;;;15.97;63.88
47280;BME280;34064;44.942;0.008;2023-04-12T09:04:17;98073.53;;;15.97;64.30
47280;BME280;34064;44.942;0.008;2023-04-12T09:06:47;98073.53;;;15.97;64.29
47280;BME280;34064;44.942;0.008;2023-04-12T09:09:15;98078.06;;;15.97;64.38
47280;BME280;34064;44.942;0.008;2023-04-12T09:11:42;98085.09;;;15.98;64.56
47280;BME280;34064;44.942;0.008;2023-04-12T09:14:22;98076.06;;;15.99;64.66
47280;BME280;34064;44.942;0.008;2023-04-12T09:16:50;98068.81;;;16.08;64.82
47280;BME280;34064;44.942;0.008;2023-04-12T09:19:29;98051.09;;;16.15;64.72
47280;BME280;34064;44.942;0.008;2023-04-12T09:21:56;98031.78;;;16.28;64.21
47280;BME280;34064;44.942;0.008;2023-04-12T09:24:25;98028.03;;;16.45;64.66
47280;BME280;34064;44.942;0.008;2023-04-12T09:27:07;98026.25;;;16.61;64.67
47280;BME280;34064;44.942;0.008;2023-04-12T09:29:38;98026.41;;;16.67;64.59
47280;BME280;34064;44.942;0.008;2023-04-12T09:32:07;98030.84;;;16.83;64.59
47280;BME280;34064;44.942;0.008;2023-04-12T09:34:35;98036.50;;;16.89;64.81
47280;BME280;34064;44.942;0.008;2023-04-12T09:37:14;98037.16;;;16.91;63.98
47280;BME280;34064;44.942;0.008;2023-04-12T09:39:42;98033.66;;;16.90;63.79
47280;BME280;34064;44.942;0.008;2023-04-12T09:42:10;98045.56;;;16.88;63.88
47280;BME280;34064;44.942;0.008;2023-04-12T09:44:38;98021.06;;;16.91;63.90
47280;BME280;34064;44.942;0.008;2023-04-12T09:47:04;98028.56;;;17.04;63.80
47280;BME280;34064;44.942;0.008;2023-04-12T09:49:41;98025.28;;;17.17;62.80
47280;BME280;34064;44.942;0.008;2023-04-12T09:52:10;98022.59;;;17.17;62.62
47280;BME280;34064;44.942;0.008;2023-04-12T09:54:47;98025.28;;;17.17;62.77
47280;BME280;34064;44.942;0.008;2023-04-12T09:57:17;98034.00;;;17.19;62.73
47280;BME280;34064;44.942;0.008;2023-04-12T09:59:48;98028.50;;;17.12;62.74
47280;BME280;34064;44.942;0.008;2023-04-12T10:02:21;98022.78;;;17.15;62.46
47280;BME280;34064;44.942;0.008;2023-04-12T10:04:54;98028.63;;;17.19;62.34
47280;BME280;34064;44.942;0.008;2023-04-12T10:07:22;98036.34;;;17.22;62.18
47280;BME280;34064;44.942;0.008;2023-04-12T10:09:49;98035.47;;;17.21;62.08
47280;BME280;34064;44.942;0.008;2023-04-12T10:12:16;98035.53;;;17.13;61.87
47280;BME280;34064;44.942;0.008;2023-04-12T10:14:45;98039.72;;;17.15;62.24
47280;BME280;34064;44.942;0.008;2023-04-12T10:17:12;98027.81;;;17.18;61.68
47280;BME280;34064;44.942;0.008;2023-04-12T10:19:39;98024.94;;;17.20;60.69
47280;BME280;34064;44.942;0.008;2023-04-12T10:22:06;98021.94;;;17.14;60.61
47280;BME280;34064;44.942;0.008;2023-04-12T10:24:34;98021.94;;;17.14;60.54
47280;BME280;34064;44.942;0.008;2023-04-12T10:27:06;98020.94;;;17.15;60.63
47280;BME280;34064;44.942;0.008;2023-04-12T10:29:37;98033.72;;;17.13;60.55
47280;BME280;34064;44.942;0.008;2023-04-12T10:32:23;98040.44;;;17.09;59.87
47280;BME280;34064;44.942;0.008;2023-04-12T10:34:57;98054.09;;;16.99;59.19
47280;BME280;34064;44.942;0.008;2023-04-12T10:38:01;98068.69;;;16.89;59.87
47280;BME280;34064;44.942;0.008;2023-04-12T10:40:32;98069.41;;;16.82;59.14
47280;BME280;34064;44.942;0.008;2023-04-12T10:43:26;98079.22;;;16.67;58.88
47280;BME280;34064;44.942;0.008;2023-04-12T10:45:57;98085.94;;;16.55;59.23
47280;BME280;34064;44.942;0.008;2023-04-12T10:51:27;98133.25;;;16.31;60.39
47280;BME280;34064;44.942;0.008;2023-04-12T10:56:46;98110.34;;;16.12;61.01
47280;BME280;34064;44.942;0.008;2023-04-12T10:59:16;98107.50;;;16.05;61.08
47280;BME280;34064;44.942;0.008;2023-04-12T11:02:11;98110.88;;;16.07;60.67
47280;BME280;34064;44.942;0.008;2023-04-12T11:05:03;98105.50;;;16.15;61.28
47280;BME280;34064;44.942;0.008;2023-04-12T11:07:42;98111.53;;;16.17;61.19
47280;BME280;34064;44.942;0.008;2023-04-12T11:10:17;98113.84;;;16.12;61.52
47280;BME280;34064;44.942;0.008;2023-04-12T11:12:53;98114.88;;;16.03;61.22
47280;BME280;34064;44.942;0.008;2023-04-12T11:15:26;98124.59;;;15.96;61.64
47280;BME280;34064;44.942;0.008;2023-04-12T11:17:57;98126.44;;;15.95;61.73
47280;BME280;34064;44.942;0.008;2023-04-12T11:20:28;98146.50;;;15.83;62.07
47280;BME280;34064;44.942;0.008;2023-04-12T11:22:58;98149.34;;;15.81;61.85
47280;BME280;34064;44.942;0.008;2023-04-12T11:25:29;98152.00;;;15.73;62.11
47280;BME280;34064;44.942;0.008;2023-04-12T11:28:01;98141.97;;;15.67;62.47
47280;BME280;34064;44.942;0.008;2023-04-12T11:30:32;98152.69;;;15.67;62.59
47280;BME280;34064;44.942;0.008;2023-04-12T11:33:01;98144.81;;;15.65;62.56
47280;BME280;34064;44.942;0.008;2023-04-12T11:35:31;98140.28;;;15.57;62.50
47280;BME280;34064;44.942;0.008;2023-04-12T11:38:01;98100.13;;;15.57;62.34
47280;BME280;34064;44.942;0.008;2023-04-12T11:40:31;98127.25;;;15.63;62.28
47280;BME280;34064;44.942;0.008;2023-04-12T11:42:59;98139.66;;;15.72;62.28
47280;BME280;34064;44.942;0.008;2023-04-12T11:45:28;98144.34;;;15.86;62.02
47280;BME280;34064;44.942;0.008;2023-04-12T11:47:58;98160.78;;;16.00;62.49
47280;BME280;34064;44.942;0.008;2023-04-12T11:50:31;98161.44;;;16.10;62.06
47280;BME280;34064;44.942;0.008;2023-04-12T11:53:14;98186.56;;;16.01;62.34
47280;BME280;34064;44.942;0.008;2023-04-12T11:55:53;98194.25;;;15.96;61.69
47280;BME280;34064;44.942;0.008;2023-04-12T11:58:27;98219.63;;;15.67;61.22
47280;BME280;34064;44.942;0.008;2023-04-12T12:00:57;98225.63;;;15.52;60.77
47280;BME280;34064;44.942;0.008;2023-04-12T12:03:27;98211.50;;;15.34;59.92
47280;BME280;34064;44.942;0.008;2023-04-12T12:05:57;98221.81;;;15.20;59.90
47280;BME280;34064;44.942;0.008;2023-04-12T12:08:28;98238.84;;;15.11;60.60
47280;BME280;34064;44.942;0.008;2023-04-12T12:10:58;98215.09;;;15.08;61.05
47280;BME280;34064;44.942;0.008;2023-04-12T12:14:15;98214.28;;;15.16;60.92
47280;BME280;34064;44.942;0.008;2023-04-12T12:16:19;98184.69;;;15.17;60.64
47280;BME280;34064;44.942;0.008;2023-04-12T12:18:52;98162.16;;;15.20;60.71
47280;BME280;34064;44.942;0.008;2023-04-12T12:21:22;98183.06;;;15.24;61.05
47280;BME280;34064;44.942;0.008;2023-04-12T12:23:51;98186.44;;;15.35;61.04
47280;BME280;34064;44.942;0.008;2023-04-12T12:26:21;98182.41;;;15.39;60.09
47280;BME280;34064;44.942;0.008;2023-04-12T12:28:52;98197.47;;;15.40;59.41
47280;BME280;34064;44.942;0.008;2023-04-12T12:31:26;98200.53;;;15.53;59.90
47280;BME280;34064;44.942;0.008;2023-04-12T12:33:56;98198.88;;;15.60;60.13
47280;BME280;34064;44.942;0.008;2023-04-12T12:36:34;98207.91;;;15.68;59.79
47280;BME280;34064;44.942;0.008;2023-04-12T12:39:08;98211.59;;;15.67;59.92
47280;BME280;34064;44.942;0.008;2023-04-12T12:41:40;98235.00;;;15.65;59.35
47280;BME280;34064;44.942;0.008;2023-04-12T12:44:06;98238.34;;;15.67;58.72
47280;BME280;34064;44.942;0.008;2023-04-12T12:46:33;98259.75;;;15.58;58.77
47280;BME280;34064;44.942;0.008;2023-04-12T12:49:00;98250.38;;;15.54;59.21
47280;BME280;34064;44.942;0.008;2023-04-12T12:51:26;98208.50;;;15.45;58.56
47280;BME280;34064;44.942;0.008;2023-04-12T12:53:52;98237.94;;;15.37;58.62
47280;BME280;34064;44.942;0.008;2023-04-12T12:56:19;98247.94;;;15.26;58.99
47280;BME280;34064;44.942;0.008;2023-04-12T12:58:46;98247.22;;;15.16;59.63
47280;BME280;34064;44.942;0.008;2023-04-12T13:01:12;98228.03;;;15.21;59.98
47280;BME280;34064;44.942;0.008;2023-04-12T13:03:39;98233.75;;;15.34;60.68
47280;BME280;34064;44.942;0.008;2023-04-12T13:06:05;98230.47;;;15.49;60.57
47280;BME280;34064;44.942;0.008;2023-04-12T13:08:32;98234.19;;;15.72;60.80
47280;BME280;34064;44.942;0.008;2023-04-12T13:11:00;98225.06;;;15.92;60.36
47280;BME280;34064;44.942;0.008;2023-04-12T13:13:26;98237.09;;;15.96;59.38
47280;BME280;34064;44.942;0.008;2023-04-12T13:15:53;98227.25;;;16.04;59.14
47280;BME280;34064;44.942;0.008;2023-04-12T13:18:19;98229.75;;;16.14;59.10
47280;BME280;34064;44.942;0.008;2023-04-12T13:20:46;98229.22;;;16.19;59.00
47280;BME280;34064;44.942;0.008;2023-04-12T13:23:12;98221.88;;;16.29;58.65
47280;BME280;34064;44.942;0.008;2023-04-12T13:25:39;98226.03;;;16.32;58.39
47280;BME280;34064;44.942;0.008;2023-04-12T13:28:06;98240.44;;;16.31;58.68